createdAt,value
2019-04-16T00:02:59.524Z,91.70
2019-04-16T00:08:27.326Z,92.30
2019-04-16T00:13:29.325Z,92.80
2019-04-16T00:18:37.267Z,92.50
2019-04-16T00:24:08.408Z,93.00
2019-04-16T00:29:14.891Z,93.20
2019-04-16T00:34:21.207Z,92.80
2019-04-16T00:39:27.565Z,93.20
2019-04-16T00:44:33.816Z,93.00
2019-04-16T00:49:40.159Z,93.00
2019-04-16T00:54:46.441Z,93.60
2019-04-16T00:59:56.344Z,93.70
2019-04-16T01:05:00.727Z,94.00
2019-04-16T01:10:07.223Z,94.40
2019-04-16T01:15:13.848Z,94.50
2019-04-16T01:20:20.172Z,94.40
2019-04-16T01:25:26.595Z,94.60
2019-04-16T01:30:51.799Z,94.50
2019-04-16T01:36:17.036Z,94.90
2019-04-16T01:41:23.470Z,95.70
2019-04-16T01:46:32.601Z,96.10
2019-04-16T01:51:38.018Z,96.00
2019-04-16T01:56:45.436Z,96.10
2019-04-16T02:01:52.069Z,96.90
2019-04-16T02:06:58.432Z,96.70
2019-04-16T02:12:04.760Z,96.70
2019-04-16T02:17:11.163Z,96.90
2019-04-16T02:22:17.500Z,97.00
2019-04-16T02:27:26.250Z,96.90
2019-04-16T02:32:31.680Z,97.20
2019-04-16T02:37:37.949Z,97.90
2019-04-16T02:42:44.207Z,97.50
2019-04-16T02:47:50.647Z,98.10
2019-04-16T02:53:02.307Z,98.30
2019-04-16T02:58:15.145Z,98.30
2019-04-16T03:03:27.983Z,97.90
2019-04-16T03:08:36.218Z,98.40
2019-04-16T03:13:42.238Z,98.70
2019-04-16T03:19:10.526Z,99.00
2019-04-16T03:24:16.805Z,99.00
2019-04-16T03:29:23.251Z,99.10
2019-04-16T03:34:29.536Z,99.50
2019-04-16T03:39:35.834Z,99.70
2019-04-16T03:44:42.160Z,99.90
2019-04-16T03:49:48.398Z,99.90
2019-04-16T03:54:54.766Z,99.90
2019-04-16T04:00:01.079Z,99.90
2019-04-16T04:05:07.774Z,99.90
2019-04-16T04:10:28.853Z,99.90
2019-04-16T04:15:25.916Z,99.90
2019-04-16T04:20:30.586Z,99.90
2019-04-16T04:25:37.187Z,99.90
2019-04-16T04:30:43.580Z,99.90
2019-04-16T04:35:51.022Z,99.90
2019-04-16T04:40:59.802Z,99.90
2019-04-16T04:46:06.007Z,99.90
2019-04-16T04:51:12.376Z,99.90
2019-04-16T04:56:19.514Z,99.90
2019-04-16T05:01:26.364Z,99.90
2019-04-16T05:06:35.889Z,99.90
2019-04-16T05:11:42.185Z,99.90
2019-04-16T05:16:48.545Z,99.90
2019-04-16T05:21:54.818Z,99.90
2019-04-16T05:27:01.156Z,99.90
2019-04-16T05:32:07.616Z,99.90
2019-04-16T05:37:16.394Z,99.90
2019-04-16T05:42:22.443Z,99.90
2019-04-16T05:47:30.555Z,99.90
2019-04-16T05:52:36.948Z,99.90
2019-04-16T05:57:46.876Z,99.90
2019-04-16T06:02:53.201Z,99.90
2019-04-16T06:08:10.230Z,99.90
2019-04-16T06:13:35.639Z,99.90
2019-04-16T06:19:11.586Z,99.90
2019-04-16T06:24:40.229Z,99.90
2019-04-16T06:30:01.316Z,99.90
2019-04-16T06:35:24.811Z,99.90
2019-04-16T06:41:03.404Z,99.90
2019-04-16T06:46:44.094Z,99.90
2019-04-16T06:52:08.315Z,99.90
2019-04-16T06:57:33.693Z,99.90
2019-04-16T07:03:02.587Z,98.30
2019-04-16T07:08:38.095Z,97.90
2019-04-16T07:13:42.195Z,96.80
2019-04-16T07:18:49.375Z,96.00
2019-04-16T07:23:58.193Z,95.70
2019-04-16T07:29:16.165Z,94.80
2019-04-16T07:34:31.938Z,94.30
2019-04-16T07:39:54.617Z,93.30
2019-04-16T07:45:12.536Z,93.00
2019-04-16T07:50:40.008Z,92.40
2019-04-16T07:55:51.452Z,92.10
2019-04-16T08:00:59.857Z,91.00
2019-04-16T08:06:06.138Z,91.20
2019-04-16T08:11:12.492Z,90.70
2019-04-16T08:16:19.114Z,90.60
2019-04-16T08:21:27.483Z,89.80
2019-04-16T08:26:33.935Z,89.60
2019-04-16T08:31:44.546Z,88.50
2019-04-16T08:36:52.221Z,86.60
2019-04-16T08:41:58.745Z,84.50
2019-04-16T08:47:05.686Z,84.50
2019-04-16T08:52:12.086Z,83.70
2019-04-16T08:57:18.376Z,82.90
2019-04-16T09:02:27.026Z,80.90
2019-04-16T09:07:39.786Z,80.30
2019-04-16T09:13:02.045Z,79.70
2019-04-16T09:18:28.104Z,78.90
2019-04-16T09:23:34.660Z,79.60
2019-04-16T09:28:53.250Z,77.00
2019-04-16T09:34:27.381Z,78.60
2019-04-16T09:39:51.276Z,72.50
2019-04-16T09:44:57.731Z,74.10
2019-04-16T09:50:09.621Z,71.20
2019-04-16T09:55:15.192Z,73.30
2019-04-16T10:00:28.166Z,70.70
2019-04-16T10:05:34.744Z,72.80
2019-04-16T10:10:41.094Z,68.30
2019-04-16T10:15:47.898Z,68.30
2019-04-16T10:20:54.277Z,68.70
2019-04-16T10:26:00.712Z,68.50
2019-04-16T10:31:07.731Z,67.50
2019-04-16T10:36:14.166Z,66.00
2019-04-16T10:41:39.459Z,66.60
2019-04-16T10:47:12.377Z,63.40
2019-04-16T10:52:54.001Z,64.00
2019-04-16T10:58:33.819Z,63.90
2019-04-16T11:03:57.153Z,60.40
2019-04-16T11:09:05.461Z,57.30
2019-04-16T11:14:12.355Z,58.00
2019-04-16T11:19:19.168Z,57.90
2019-04-16T11:24:25.701Z,55.40
2019-04-16T11:29:32.201Z,56.40
2019-04-16T11:34:38.861Z,53.70
2019-04-16T11:39:45.385Z,54.60
2019-04-16T11:44:51.809Z,54.20
2019-04-16T11:49:58.293Z,55.90
2019-04-16T11:55:05.816Z,53.80
2019-04-16T12:00:15.259Z,53.00
2019-04-16T12:05:29.590Z,52.50
2019-04-16T12:10:53.747Z,53.60
2019-04-16T12:16:21.211Z,53.30
2019-04-16T12:21:51.968Z,54.80
2019-04-16T12:27:26.506Z,54.20
2019-04-16T12:33:07.426Z,55.30
2019-04-16T12:38:18.657Z,54.60
2019-04-16T12:43:45.398Z,55.00
2019-04-16T12:49:10.713Z,54.80
2019-04-16T12:54:30.542Z,54.40
2019-04-16T12:59:43.121Z,54.50
2019-04-16T13:04:56.065Z,56.20
2019-04-16T13:10:13.507Z,57.00
2019-04-16T13:15:41.928Z,58.40
2019-04-16T13:21:10.664Z,57.40
2019-04-16T13:26:28.986Z,56.90
2019-04-16T13:31:39.006Z,57.70
2019-04-16T13:36:46.171Z,58.90
2019-04-16T13:41:53.049Z,59.90
2019-04-16T13:47:03.030Z,60.10
2019-04-16T13:52:08.158Z,59.70
2019-04-16T13:57:17.352Z,59.80
2019-04-16T14:02:57.701Z,60.90
2019-04-16T14:08:04.135Z,61.80
2019-04-16T14:13:13.466Z,62.20
2019-04-16T14:18:21.683Z,63.20
2019-04-16T14:23:26.759Z,62.60
2019-04-16T14:28:34.727Z,63.50
2019-04-16T14:34:00.243Z,64.40
2019-04-16T14:39:35.808Z,64.50
2019-04-16T14:44:49.822Z,65.40
2019-04-16T14:49:56.899Z,66.10
2019-04-16T14:55:21.755Z,66.80
2019-04-16T15:00:47.168Z,66.60
2019-04-16T15:06:05.371Z,66.50
2019-04-16T15:11:33.866Z,66.50
2019-04-16T15:16:45.331Z,67.70
2019-04-16T15:22:09.419Z,66.40
2019-04-16T15:27:41.200Z,66.60
2019-04-16T15:33:07.097Z,66.90
2019-04-16T15:38:18.390Z,67.50
2019-04-16T15:43:59.078Z,67.90
2019-04-16T15:49:15.018Z,67.90
2019-04-16T15:54:46.314Z,68.20
2019-04-16T16:00:14.956Z,72.50
2019-04-16T16:05:33.631Z,74.60
2019-04-16T16:10:47.779Z,74.80
2019-04-16T16:15:54.257Z,75.30
2019-04-16T16:21:00.921Z,74.90
2019-04-16T16:26:08.093Z,75.10
2019-04-16T16:31:14.598Z,74.50
2019-04-16T16:36:21.030Z,76.10
2019-04-16T16:41:27.487Z,76.40
2019-04-16T16:46:56.470Z,77.00
2019-04-16T16:52:20.713Z,77.20
2019-04-16T16:57:34.696Z,77.70
2019-04-16T17:02:45.859Z,77.40
2019-04-16T17:07:53.674Z,79.00
2019-04-16T17:13:00.310Z,78.40
2019-04-16T17:18:06.609Z,78.20
2019-04-16T17:23:16.808Z,78.70
2019-04-16T17:28:23.612Z,80.10
2019-04-16T17:33:30.130Z,81.40
2019-04-16T17:38:36.720Z,82.20
2019-04-16T17:44:02.231Z,83.70
2019-04-16T17:49:18.563Z,84.70
2019-04-16T18:01:23.612Z,87.90
2019-04-16T18:06:57.656Z,88.00
2019-04-16T18:12:26.799Z,89.40
2019-04-16T18:17:47.381Z,90.40
2019-04-16T18:22:57.606Z,90.90
2019-04-16T18:28:09.456Z,91.50
2019-04-16T18:33:37.734Z,92.50
2019-04-16T18:39:04.874Z,93.40
2019-04-16T18:44:43.458Z,94.10
2019-04-16T18:49:51.307Z,94.50
2019-04-16T18:54:58.289Z,95.40
2019-04-16T19:00:14.643Z,95.50
2019-04-16T19:05:21.115Z,96.40
2019-04-16T19:10:27.375Z,97.10
2019-04-16T19:15:33.762Z,97.50
2019-04-16T19:20:40.059Z,98.00
2019-04-16T19:25:46.370Z,98.50
2019-04-16T19:30:52.732Z,98.80
2019-04-16T19:35:59.226Z,99.40
2019-04-16T19:41:06.029Z,99.80
2019-04-16T19:46:15.287Z,99.90
2019-04-16T19:51:20.806Z,99.90
2019-04-16T19:56:27.427Z,99.90
2019-04-16T20:01:33.774Z,99.90
2019-04-16T20:06:40.525Z,99.90
2019-04-16T20:11:47.388Z,99.90
2019-04-16T20:16:54.159Z,99.90
2019-04-16T20:22:00.589Z,99.90
2019-04-16T20:27:07.091Z,99.90
2019-04-16T20:32:14.738Z,99.90
2019-04-16T20:37:21.344Z,99.90
2019-04-16T20:42:27.801Z,99.90
2019-04-16T20:47:38.590Z,99.90
2019-04-16T20:52:43.092Z,99.90
2019-04-16T20:57:49.412Z,99.90
2019-04-16T21:02:56.262Z,99.90
2019-04-16T21:08:02.640Z,99.90
2019-04-16T21:13:10.232Z,99.90
2019-04-16T21:18:16.571Z,99.90
2019-04-16T21:23:22.855Z,99.90
2019-04-16T21:28:46.048Z,99.90
2019-04-16T21:34:24.291Z,99.90
2019-04-16T21:39:46.935Z,99.90
2019-04-16T21:44:51.791Z,99.90
2019-04-16T21:49:58.159Z,99.90
2019-04-16T21:55:06.373Z,99.90
2019-04-16T22:00:30.681Z,99.90
2019-04-16T22:05:38.724Z,99.90
2019-04-16T22:10:46.669Z,99.90
2019-04-16T22:15:53.692Z,99.90
2019-04-16T22:21:01.784Z,99.90
2019-04-16T22:26:10.556Z,99.90
2019-04-16T22:31:16.275Z,99.90
2019-04-16T22:36:22.649Z,99.90
2019-04-16T22:41:46.961Z,99.90
2019-04-16T22:46:56.884Z,99.90
2019-04-16T22:52:03.224Z,99.90
2019-04-16T22:57:11.696Z,99.90
2019-04-16T23:02:23.560Z,99.90
2019-04-16T23:07:30.072Z,99.90
2019-04-16T23:12:36.515Z,99.90
2019-04-16T23:17:45.792Z,99.90
2019-04-16T23:22:50.928Z,99.90
2019-04-16T23:27:58.201Z,99.90
2019-04-16T23:33:05.580Z,99.90
2019-04-16T23:38:12.412Z,99.90
2019-04-16T23:43:38.775Z,99.90
2019-04-16T23:49:10.246Z,99.90
2019-04-16T23:54:19.591Z,99.90
2019-04-16T23:59:36.859Z,99.90
